Time;durP1;ratioP1;P1;durP2;ratioP2;P2;SDS_P1;SDS_P2;PMS_P1;PMS_P2;Temp;Humidity;BMP_temperature;BMP_pressure;BME280_temperature;BME280_humidity;BME280_pressure;Samples;Min_cycle;Max_cycle;Signal;HPM_P1;HPM_P2
2022/03/20 00:01:28;;;;;;;92.97;65.80;;;14.90;75.90;;;;;;5293519;28;20040;-29
2022/03/20 00:03:59;;;;;;;100.07;73.10;;;14.90;76.10;;;;;;5291703;28;20047;-32
2022/03/20 00:06:30;;;;;;;102.90;72.07;;;14.90;76.00;;;;;;5293142;28;20046;-30
2022/03/20 00:09:01;;;;;;;105.53;70.37;;;14.90;75.80;;;;;;5292982;28;20039;-29
2022/03/20 00:11:32;;;;;;;98.43;67.63;;;14.90;76.10;;;;;;5293268;28;20054;-28
2022/03/20 00:14:04;;;;;;;105.40;74.20;;;14.90;76.20;;;;;;5293600;28;20480;-32
2022/03/20 00:16:34;;;;;;;102.40;74.03;;;14.90;76.30;;;;;;5293006;28;20088;-29
2022/03/20 00:19:06;;;;;;;100.53;72.20;;;14.90;76.20;;;;;;5291568;28;20088;-29
2022/03/20 00:21:37;;;;;;;99.30;70.53;;;14.90;76.20;;;;;;5292754;28;20043;-30
2022/03/20 00:24:08;;;;;;;123.73;87.17;;;14.80;76.20;;;;;;5291408;28;20047;-29
2022/03/20 00:26:41;;;;;;;136.37;96.87;;;14.80;76.40;;;;;;5292433;28;20044;-29
2022/03/20 00:29:13;;;;;;;119.53;80.13;;;14.80;76.40;;;;;;5292997;28;20070;-29
2022/03/20 00:31:43;;;;;;;115.90;73.20;;;14.80;75.90;;;;;;5291410;28;20058;-32
2022/03/20 00:34:14;;;;;;;;;;;14.80;75.90;;;;;;5292985;28;20067;-29
2022/03/20 00:36:45;;;;;;;;;;;14.80;76.20;;;;;;5293285;28;19975;-29
2022/03/20 00:39:16;;;;;;;;;;;14.80;76.50;;;;;;5293219;28;20254;-29
2022/03/20 00:41:47;;;;;;;;;;;14.80;76.80;;;;;;5292783;28;20328;-29
2022/03/20 00:44:18;;;;;;;;;;;14.80;76.60;;;;;;5292940;28;19966;-29
2022/03/20 00:46:49;;;;;;;;;;;14.80;76.70;;;;;;5292703;28;19962;-29
2022/03/20 00:49:20;;;;;;;;;;;14.80;77.00;;;;;;5292873;28;19919;-31
2022/03/20 00:51:51;;;;;;;;;;;14.80;77.20;;;;;;5292864;28;19926;-29
2022/03/20 00:54:22;;;;;;;;;;;14.80;76.90;;;;;;5291775;28;19919;-32
2022/03/20 00:56:53;;;;;;;;;;;14.80;77.20;;;;;;5293285;28;19926;-29
2022/03/20 00:59:24;;;;;;;;;;;14.80;77.20;;;;;;5274318;28;20367;-32
2022/03/20 01:01:55;;;;;;;;;;;14.80;77.30;;;;;;5292554;28;20019;-30
2022/03/20 01:04:26;;;;;;;;;;;14.80;77.20;;;;;;5292493;28;19966;-29
2022/03/20 01:07:03;;;;;;;;;;;14.80;77.10;;;;;;5292302;28;19969;-29
2022/03/20 01:09:34;;;;;;;;;;;14.80;77.20;;;;;;5292440;28;20301;-31
2022/03/20 01:12:08;;;;;;;;;;;14.80;77.20;;;;;;5292110;28;19966;-29
2022/03/20 01:14:40;;;;;;;;;;;14.80;76.80;;;;;;5292507;28;19955;-29
2022/03/20 01:17:11;;;;;;;;;;;14.70;77.20;;;;;;5292136;28;19941;-28
2022/03/20 01:19:42;;;;;;;;;;;14.70;77.20;;;;;;5292179;28;19988;-29
2022/03/20 01:22:15;;;;;;;;;;;14.70;77.50;;;;;;5292099;28;20491;-29
2022/03/20 01:24:46;;;;;;;;;;;14.70;77.10;;;;;;5292100;28;19923;-29
2022/03/20 01:27:16;;;;;;;;;;;14.70;77.60;;;;;;5291833;28;20399;-29
2022/03/20 01:29:47;;;;;;;;;;;14.70;77.50;;;;;;5291825;28;19939;-29
2022/03/20 01:32:18;;;;;;;;;;;14.70;77.80;;;;;;5292115;28;19963;-29
2022/03/20 01:34:52;;;;;;;;;;;14.70;77.90;;;;;;5292113;28;19973;-29
2022/03/20 01:37:23;;;;;;;;;;;14.70;78.20;;;;;;5290244;28;19947;-31
2022/03/20 01:39:54;;;;;;;;;;;14.70;78.80;;;;;;5291644;28;19919;-32
2022/03/20 01:42:25;;;;;;;;;;;14.70;78.80;;;;;;5291771;28;19947;-31
2022/03/20 01:44:56;;;;;;;;;;;14.70;79.00;;;;;;5291703;28;20283;-30
2022/03/20 01:47:27;;;;;;;;;;;14.70;77.90;;;;;;5291695;28;19924;-28
2022/03/20 01:49:58;;;;;;;;;;;14.70;80.00;;;;;;5291391;28;19920;-29
2022/03/20 01:52:29;;;;;;;;;;;14.70;79.90;;;;;;5291489;28;19920;-29
2022/03/20 01:55:00;;;;;;;;;;;14.70;80.30;;;;;;5291386;28;19920;-30
2022/03/20 01:57:36;;;;;;;;;;;14.70;79.40;;;;;;5290303;28;20364;-30
2022/03/20 02:00:07;;;;;;;;;;;14.70;84.60;;;;;;5290824;28;20288;-29
2022/03/20 02:02:38;;;;;;;;;;;14.80;87.70;;;;;;5289928;28;19920;-31
2022/03/20 02:05:09;;;;;;;;;;;14.80;87.60;;;;;;5289464;28;20002;-31
2022/03/20 02:07:40;;;;;;;;;;;14.80;87.40;;;;;;5291347;28;19920;-29
2022/03/20 02:10:11;;;;;;;;;;;14.80;87.20;;;;;;5291033;28;19972;-30
2022/03/20 02:12:42;;;;;;;;;;;14.80;87.20;;;;;;5290609;28;19920;-29
2022/03/20 02:15:14;;;;;;;;;;;14.80;86.40;;;;;;5291317;28;19951;-29
2022/03/20 02:17:44;;;;;;;;;;;14.80;86.20;;;;;;5290072;28;19926;-29
2022/03/20 02:20:17;;;;;;;;;;;14.80;85.70;;;;;;5291190;28;19923;-29
2022/03/20 02:22:47;;;;;;;;;;;14.80;85.10;;;;;;5291236;28;19919;-29
2022/03/20 02:25:19;;;;;;;;;;;14.80;84.90;;;;;;5291140;28;20401;-30
2022/03/20 02:27:49;;;;;;;;;;;14.80;84.60;;;;;;5291137;28;20018;-31
2022/03/20 02:30:22;;;;;;;;;;;14.90;84.80;;;;;;5290947;28;19951;-30
2022/03/20 02:32:53;;;;;;;;;;;14.80;84.40;;;;;;5290918;28;20006;-30
2022/03/20 02:35:25;;;;;;;;;;;14.80;84.30;;;;;;5291101;28;20006;-29
2022/03/20 02:37:56;;;;;;;;;;;14.80;84.50;;;;;;5291012;28;20014;-31
2022/03/20 02:40:27;;;;;;;;;;;14.80;84.40;;;;;;5289642;28;19920;-29
2022/03/20 02:42:58;;;;;;;;;;;14.80;84.40;;;;;;5290938;28;19919;-29
2022/03/20 02:45:32;;;;;;;;;;;14.80;84.40;;;;;;5289738;28;19934;-29
2022/03/20 02:48:06;;;;;;;;;;;14.80;84.20;;;;;;5290960;28;19920;-28
2022/03/20 02:50:37;;;;;;;;;;;14.80;84.00;;;;;;5289665;28;20356;-29
2022/03/20 02:53:11;;;;;;;;;;;14.80;83.80;;;;;;5291010;28;19927;-29
2022/03/20 02:55:44;;;;;;;;;;;14.80;83.80;;;;;;5290661;28;19997;-29
2022/03/20 02:58:16;;;;;;;;;;;14.80;83.70;;;;;;5290562;28;20014;-29
2022/03/20 03:00:47;;;;;;;;;;;14.80;83.50;;;;;;5289664;28;19920;-29
2022/03/20 03:03:18;;;;;;;;;;;14.70;83.40;;;;;;5290730;28;20272;-31
2022/03/20 03:05:49;;;;;;;;;;;14.70;82.70;;;;;;5290708;28;20327;-28
2022/03/20 03:11:09;;;;;;;;;;;14.70;82.40;;;;;;5291129;28;19927;-29
2022/03/20 03:13:40;;;;;;;;;;;14.70;82.20;;;;;;5290393;28;20276;-30
2022/03/20 03:16:12;;;;;;;;;;;14.70;82.00;;;;;;5289446;28;19920;-29
2022/03/20 03:18:44;;;;;;;;;;;14.70;82.30;;;;;;5293402;28;19919;-30
2022/03/20 03:21:17;;;;;;;;;;;14.70;81.70;;;;;;5295062;28;20014;-31
2022/03/20 03:23:48;;;;;;;;;;;14.70;81.70;;;;;;5294599;28;19947;-29
2022/03/20 03:26:19;;;;;;;;;;;14.70;81.60;;;;;;5294482;28;19926;-29
2022/03/20 03:28:49;;;;;;;;;;;14.70;81.30;;;;;;5293119;28;20327;-31
2022/03/20 03:31:20;;;;;;;;;;;14.70;81.40;;;;;;5294370;28;19927;-31
2022/03/20 03:36:41;;;;;;;;;;;14.70;81.20;;;;;;5294380;28;19926;-32
2022/03/20 03:39:12;;;;;;;;;;;14.70;81.00;;;;;;5294223;28;19920;-32
2022/03/20 03:41:43;;;;;;;;;;;14.70;80.50;;;;;;5294133;28;19920;-29
2022/03/20 03:44:14;;;;;;;;;;;14.70;79.90;;;;;;5293276;28;20285;-31
2022/03/20 03:46:45;;;;;;;;;;;14.70;80.30;;;;;;5294058;28;19931;-29
2022/03/20 03:49:16;;;;;;;;;;;14.70;80.40;;;;;;5294031;28;19962;-29
2022/03/20 03:51:47;;;;;;;;;;;14.70;81.00;;;;;;5293916;28;19920;-28
2022/03/20 03:54:18;;;;;;;;;;;14.70;80.90;;;;;;5293960;28;19924;-32
2022/03/20 03:56:49;;;;;;;;;;;14.70;80.70;;;;;;5293938;28;19920;-29
2022/03/20 03:59:20;;;;;;;;;;;14.60;80.60;;;;;;5293748;28;20010;-31
2022/03/20 04:01:52;;;;;;;;;;;14.70;80.80;;;;;;5293826;28;20022;-29
2022/03/20 04:04:22;;;;;;;;;;;14.70;80.90;;;;;;5293854;28;20424;-29
2022/03/20 04:06:54;;;;;;;;;;;14.60;81.20;;;;;;5293428;28;20010;-29
2022/03/20 04:09:25;;;;;;;;;;;14.60;81.00;;;;;;5292565;28;19927;-29
2022/03/20 04:11:56;;;;;;;;;;;14.60;81.10;;;;;;5293516;28;20284;-30
2022/03/20 04:14:28;;;;;;;;;;;14.60;81.20;;;;;;5293728;28;19919;-32
2022/03/20 04:17:00;;;;;;;;;;;14.60;81.20;;;;;;5292272;28;19919;-28
2022/03/20 04:19:30;;;;;;;;;;;14.60;80.50;;;;;;5293540;28;19927;-29
2022/03/20 04:22:02;;;;;;;;;;;14.60;80.10;;;;;;5292066;28;19923;-29
2022/03/20 04:24:33;;;;;;;;;;;14.60;80.00;;;;;;5293333;28;19934;-29
2022/03/20 04:27:04;;;;;;;;;;;14.60;79.90;;;;;;5293330;28;20249;-30
2022/03/20 04:29:35;;;;;;;;;;;14.60;79.80;;;;;;5292145;28;20009;-29
2022/03/20 04:32:08;;;;;;;;;;;14.60;80.00;;;;;;5292885;28;20426;-32
2022/03/20 04:34:38;;;;;;;;;;;14.60;79.90;;;;;;5293471;28;20481;-28
2022/03/20 04:37:10;;;;;;;;;;;14.60;79.70;;;;;;5292942;28;19936;-30
2022/03/20 04:39:40;;;;;;;;;;;14.60;79.40;;;;;;5293047;28;20375;-32
2022/03/20 04:42:13;;;;;;;;;;;14.60;79.50;;;;;;5292911;28;20017;-30
2022/03/20 04:44:44;;;;;;;;;;;14.60;79.20;;;;;;5292920;28;19920;-31
2022/03/20 04:58:33;;;;;;;;;;;14.60;79.50;;;;;;5292403;28;19927;-30
2022/03/20 05:01:03;;;;;;;;;;;14.60;79.20;;;;;;5274703;28;19919;-29
2022/03/20 05:03:35;;;;;;;;;;;14.50;79.10;;;;;;5293153;28;20344;-29
2022/03/20 05:06:06;;;;;;;;;;;14.60;79.60;;;;;;5291194;28;20376;-29
2022/03/20 05:08:37;;;;;;;;;;;14.60;79.90;;;;;;5292464;28;19927;-29
2022/03/20 05:13:58;;;;;;;;;;;14.60;79.80;;;;;;5292137;28;20349;-32
2022/03/20 05:16:28;;;;;;;;;;;14.60;79.80;;;;;;5292760;28;19920;-32
2022/03/20 05:19:19;;;;;;;;;;;14.60;81.70;;;;;;5292311;28;19919;-29
2022/03/20 05:21:50;;;;;;;;;;;14.60;81.10;;;;;;5291750;28;19926;-29
2022/03/20 05:24:21;;;;;;;;;;;14.60;79.80;;;;;;5291323;28;20299;-30
2022/03/20 05:26:52;;;;;;;;;;;14.50;79.30;;;;;;5290911;28;20369;-32
2022/03/20 05:29:24;;;;;;;;;;;14.60;79.30;;;;;;5292224;28;19919;-30
2022/03/20 05:31:55;;;;;;;;;;;14.50;79.40;;;;;;5291692;28;19926;-33
2022/03/20 05:34:26;;;;;;;;;;;14.50;79.30;;;;;;5290561;28;19923;-29
2022/03/20 05:36:57;;;;;;;;;;;14.50;78.80;;;;;;5290468;28;20379;-32
2022/03/20 05:39:29;;;;;;;;;;;14.50;78.70;;;;;;5291566;28;19927;-30
2022/03/20 05:41:59;;;;;;;;;;;14.50;78.20;;;;;;5291762;28;19920;-30
2022/03/20 05:44:30;;;;;;;;;;;14.50;78.80;;;;;;5291573;28;19920;-32
2022/03/20 05:47:01;;;;;;;;;;;14.50;78.90;;;;;;5291446;28;20021;-31
2022/03/20 05:49:33;;;;;;;;;;;14.50;78.70;;;;;;5291510;28;19920;-29
2022/03/20 05:52:05;;;;;;;;;;;14.60;78.70;;;;;;5285346;27;19973;-30
2022/03/20 05:54:36;;;;;;;;;;;14.50;78.40;;;;;;5272803;28;20364;-30
2022/03/20 05:59:56;;;;;;;;;;;14.50;78.50;;;;;;5268473;28;19931;-29
2022/03/20 06:02:27;;;;;;;;;;;14.50;78.70;;;;;;5272364;28;19919;-30
2022/03/20 06:04:58;;;;;;;;;;;14.50;78.70;;;;;;5276794;28;19920;-33
2022/03/20 06:07:31;;;;;;;;;;;14.50;78.90;;;;;;5283432;28;19936;-30
2022/03/20 06:10:02;;;;;;;;;;;14.50;78.80;;;;;;5268053;28;19970;-31
2022/03/20 06:12:33;;;;;;;;;;;14.60;77.50;;;;;;5267814;28;19955;-28
2022/03/20 06:15:04;;;;;;;;;;;14.50;66.50;;;;;;5283559;28;19920;-30
2022/03/20 06:17:35;;;;;;;;;;;14.50;64.10;;;;;;5267870;28;19951;-31
2022/03/20 06:20:07;;;;;;;;;;;14.50;63.70;;;;;;5268267;28;19920;-29
2022/03/20 06:22:38;;;;;;;;;;;14.50;63.90;;;;;;5267965;28;19920;-29
2022/03/20 06:25:11;;;;;;;;;;;14.50;64.90;;;;;;5267923;28;19927;-29
2022/03/20 06:27:45;;;;;;;;;;;14.60;74.50;;;;;;5267691;28;20046;-32
2022/03/20 06:30:17;;;;;;;;;;;14.70;78.40;;;;;;5266370;28;20416;-31
2022/03/20 06:32:48;;;;;;;;;;;14.70;80.40;;;;;;5267513;28;20368;-29
2022/03/20 06:35:19;;;;;;;;;;;14.80;81.70;;;;;;5277527;28;19920;-29
2022/03/20 06:37:50;;;;;;;;;;;14.80;80.70;;;;;;5271891;28;20003;-29
2022/03/20 06:40:21;;;;;;;;;;;14.80;80.00;;;;;;5267814;28;20369;-29
2022/03/20 06:42:52;;;;;;;;;;;14.80;79.20;;;;;;5265841;28;19927;-30
2022/03/20 06:45:23;;;;;;;;;;;14.90;78.60;;;;;;5268080;28;19973;-29
2022/03/20 06:47:54;;;;;;;;;;;14.90;77.60;;;;;;5269902;28;20370;-31
2022/03/20 06:50:25;;;;;;;;;;;14.90;77.50;;;;;;5269663;28;19921;-30
2022/03/20 06:53:01;;;;;;;;;;;14.90;76.00;;;;;;5272150;28;20288;-29
2022/03/20 06:55:32;;;;;;;;;;;14.90;74.70;;;;;;5274328;28;19962;-29
2022/03/20 06:58:03;;;;;;;;;;;14.90;74.00;;;;;;5273625;28;20353;-30
2022/03/20 07:00:34;;;;;;;;;;;14.80;74.00;;;;;;5273805;28;20358;-28
2022/03/20 07:03:06;;;;;;;;;;;14.80;73.80;;;;;;5273935;28;19964;-28
2022/03/20 07:05:37;;;;;;;;;;;14.90;70.90;;;;;;5287352;28;19934;-30
2022/03/20 07:08:08;;;;;;;;;;;14.80;70.30;;;;;;5274828;28;20281;-30
2022/03/20 07:14:01;;;;;;;;;;;15.00;88.70;;;;;;5273769;28;19920;-32
2022/03/20 07:16:30;;;;;;;;;;;15.20;87.80;;;;;;5272372;28;19973;-29
2022/03/20 07:19:01;;;;;;;;;;;15.30;84.70;;;;;;5273454;28;19920;-32
2022/03/20 07:21:33;;;;;;;;;;;15.30;65.60;;;;;;5291230;28;19959;-32
2022/03/20 07:24:04;;;;;;;;;;;14.40;64.40;;;;;;5294112;28;19989;-30
2022/03/20 07:29:31;;;;;;;;;;;13.40;65.00;;;;;;5294076;28;19927;-29
2022/03/20 07:32:04;;;;;;;;;;;13.10;65.10;;;;;;5294121;28;19920;-29
2022/03/20 07:34:39;;;;;;;;;;;12.90;65.40;;;;;;5292998;28;19920;-29
2022/03/20 07:37:10;;;;;;;;;;;12.70;65.30;;;;;;5293241;28;20006;-29
2022/03/20 07:39:41;;;;;;;28.43;22.40;;;12.50;65.40;;;;;;5266252;28;20343;-28
2022/03/20 07:42:13;;;;;;;26.83;22.83;;;12.40;65.70;;;;;;5292938;28;20381;-28
2022/03/20 07:44:44;;;;;;;28.73;22.70;;;12.30;64.80;;;;;;5283268;28;20169;-28
2022/03/20 07:47:20;;;;;;;30.83;23.20;;;12.40;65.30;;;;;;5275191;28;20040;-31
2022/03/20 07:49:53;;;;;;;29.10;23.47;;;12.40;65.10;;;;;;5254868;28;20143;-28
2022/03/20 07:52:24;;;;;;;27.45;22.73;;;12.40;65.70;;;;;;5272707;28;20550;-30
2022/03/20 07:54:58;;;;;;;27.90;22.40;;;12.50;64.40;;;;;;5271987;28;20060;-28
2022/03/20 07:57:30;;;;;;;25.30;21.00;;;12.50;65.50;;;;;;5271052;28;20052;-28
2022/03/20 08:00:01;;;;;;;25.23;21.20;;;12.50;64.20;;;;;;5270881;28;20047;-31
2022/03/20 08:28:35;;;;;;;;;;;12.20;63.00;;;;;;5271558;28;19955;-30
2022/03/20 08:31:06;;;;;;;;;;;12.20;62.30;;;;;;5272724;28;19966;-30
2022/03/20 08:33:37;;;;;;;;;;;12.20;61.40;;;;;;5271655;28;20072;-29
2022/03/20 08:36:09;;;;;;;;;;;12.50;61.20;;;;;;5271407;28;19927;-30
2022/03/20 08:38:40;;;;;;;;;;;12.70;60.80;;;;;;5270708;28;19920;-31
2022/03/20 08:41:11;;;;;;;;;;;13.00;60.70;;;;;;5271912;28;19920;-29
2022/03/20 08:43:43;;;;;;;;;;;13.30;60.70;;;;;;5271786;28;19920;-31
2022/03/20 08:46:14;;;;;;;;;;;13.50;60.70;;;;;;5271850;28;20369;-30
2022/03/20 08:48:45;;;;;;;;;;;13.60;60.40;;;;;;5273735;28;19938;-30
2022/03/20 08:51:16;;;;;;;;;;;13.80;60.20;;;;;;5268700;28;19920;-33
2022/03/20 08:53:48;;;;;;;;;;;13.90;59.90;;;;;;5269299;28;19924;-29
2022/03/20 08:56:20;;;;;;;;;;;14.00;59.40;;;;;;5267864;28;19973;-29
2022/03/20 08:58:51;;;;;;;;;;;14.20;59.30;;;;;;5269553;28;19959;-29
2022/03/20 09:01:22;;;;;;;;;;;14.30;60.60;;;;;;5269190;28;19927;-31
2022/03/20 09:03:53;;;;;;;;;;;14.40;64.10;;;;;;5269393;28;19924;-29
2022/03/20 09:06:24;;;;;;;;;;;14.50;60.40;;;;;;5269018;28;19920;-32
2022/03/20 09:08:55;;;;;;;;;;;14.60;61.10;;;;;;5269059;28;19924;-29
2022/03/20 09:11:26;;;;;;;;;;;14.60;59.80;;;;;;5268834;28;19924;-29
2022/03/20 09:13:57;;;;;;;;;;;14.60;58.20;;;;;;5268761;28;19924;-31
2022/03/20 09:19:18;;;;;;;;;;;14.70;59.60;;;;;;5268880;28;19966;-30
2022/03/20 09:21:50;;;;;;;;;;;14.70;57.70;;;;;;5269146;28;19920;-31
2022/03/20 09:24:21;;;;;;;;;;;14.70;58.60;;;;;;5268728;28;19935;-29
2022/03/20 09:26:53;;;;;;;;;;;14.80;58.10;;;;;;5268692;28;20320;-29
2022/03/20 09:29:26;;;;;;;;;;;14.80;61.40;;;;;;5267335;28;20293;-29
2022/03/20 09:31:57;;;;;;;;;;;14.80;57.50;;;;;;5281594;28;20344;-30
2022/03/20 09:34:31;;;;;;;;;;;14.80;57.40;;;;;;5267542;28;19927;-30
2022/03/20 09:37:02;;;;;;;;;;;14.90;59.80;;;;;;5281626;28;19966;-29
2022/03/20 09:39:33;;;;;;;;;;;14.90;59.10;;;;;;5268468;28;19962;-30
2022/03/20 09:42:06;;;;;;;;;;;14.90;59.30;;;;;;5282495;28;19924;-32
2022/03/20 09:44:40;;;;;;;;;;;14.90;57.50;;;;;;5268667;28;19920;-30
2022/03/20 09:47:11;;;;;;;;;;;14.90;57.30;;;;;;5266844;28;19920;-29
2022/03/20 09:49:42;;;;;;;;;;;14.90;57.40;;;;;;5283965;28;19927;-32
2022/03/20 09:52:13;;;;;;;;;;;14.90;56.90;;;;;;5267615;28;19920;-31
2022/03/20 09:54:44;;;;;;;;;;;14.90;56.10;;;;;;5268245;28;19919;-29
2022/03/20 09:57:15;;;;;;;;;;;14.90;56.20;;;;;;5269766;28;19926;-29
2022/03/20 09:59:48;;;;;;;;;;;14.90;55.40;;;;;;5269191;28;19924;-29
2022/03/20 10:02:23;;;;;;;;;;;14.90;55.10;;;;;;5285255;28;20289;-29
2022/03/20 10:05:07;;;;;;;;;;;14.90;55.30;;;;;;5273236;28;19960;-29
2022/03/20 10:07:40;;;;;;;;;;;15.00;56.80;;;;;;5290129;28;19923;-30
2022/03/20 10:10:18;;;;;;;;;;;15.10;65.60;;;;;;5290979;28;19923;-31
2022/03/20 10:12:51;;;;;;;;;;;15.10;61.20;;;;;;5289007;28;19924;-29
2022/03/20 10:15:28;;;;;;;;;;;15.00;69.60;;;;;;5289658;28;19924;-30
2022/03/20 10:28:19;;;;;;;;;;;14.90;64.00;;;;;;5290314;28;19918;-31
2022/03/20 10:30:59;;;;;;;;;;;14.90;59.10;;;;;;5290897;28;19923;-29
2022/03/20 10:33:30;;;;;;;;;;;14.90;58.80;;;;;;5291230;28;20368;-29
2022/03/20 10:36:17;;;;;;;;;;;14.90;64.80;;;;;;5291138;28;19942;-32
2022/03/20 10:38:49;;;;;;;;;;;14.90;62.40;;;;;;5290923;28;19923;-29
2022/03/20 10:41:20;;;;;;;;;;;14.90;62.50;;;;;;5290999;28;19924;-29
2022/03/20 10:43:51;;;;;;;;;;;14.90;58.80;;;;;;5291195;28;19923;-30
2022/03/20 10:46:26;;;;;;;;;;;14.90;57.50;;;;;;5290991;28;19928;-32
2022/03/20 10:49:01;;;;;;;;;;;14.90;59.80;;;;;;5289586;28;20291;-29
2022/03/20 10:51:37;;;;;;;;;;;14.90;65.00;;;;;;5290908;28;19977;-30
2022/03/20 10:54:09;;;;;;;;;;;14.90;60.80;;;;;;5290989;28;19931;-29
2022/03/20 10:56:56;;;;;;;;;;;14.90;65.40;;;;;;5290927;28;20018;-29
2022/03/20 10:59:27;;;;;;;;;;;14.90;70.30;;;;;;5291601;28;20004;-31
2022/03/20 11:01:59;;;;;;;;;;;14.90;59.70;;;;;;5289744;28;19923;-29
2022/03/20 11:04:30;;;;;;;;;;;14.90;65.00;;;;;;5289424;28;19928;-29
2022/03/20 11:07:06;;;;;;;;;;;14.90;65.60;;;;;;5291440;28;20269;-32
2022/03/20 11:09:37;;;;;;;;;;;14.90;67.90;;;;;;5289257;28;19931;-29
2022/03/20 11:12:08;;;;;;;;;;;14.90;64.10;;;;;;5289998;28;20285;-32
2022/03/20 11:14:39;;;;;;;;;;;14.90;64.90;;;;;;5290151;28;19924;-29
2022/03/20 11:17:12;;;;;;;;;;;14.90;57.50;;;;;;5289312;28;19924;-29
2022/03/20 11:19:46;;;;;;;;;;;14.90;60.20;;;;;;5289518;28;19931;-29
2022/03/20 11:22:18;;;;;;;;;;;14.90;84.00;;;;;;5289460;28;19924;-29
2022/03/20 11:24:50;;;;;;;;;;;14.90;73.00;;;;;;5290659;28;19924;-33
2022/03/20 11:27:23;;;;;;;;;;;15.00;78.90;;;;;;5290773;28;20006;-31
2022/03/20 11:29:56;;;;;;;;;;;15.00;85.80;;;;;;5290631;28;19924;-30
2022/03/20 11:32:28;;;;;;;;;;;15.00;80.80;;;;;;5289565;28;19923;-29
2022/03/20 11:34:59;;;;;;;;;;;15.10;78.50;;;;;;5289661;28;20344;-33
2022/03/20 11:37:43;;;;;;;;;;;15.10;88.40;;;;;;5289764;28;19953;-30
2022/03/20 11:40:20;;;;;;;;;;;15.10;78.40;;;;;;5293454;28;19930;-29
2022/03/20 11:43:10;;;;;;;;;;;15.00;76.40;;;;;;5294086;27;20356;-29
2022/03/20 11:45:40;;;;;;;;;;;15.00;65.70;;;;;;5294387;28;19924;-29
2022/03/20 11:48:15;;;;;;;;;;;15.10;77.10;;;;;;5293844;28;19959;-29
2022/03/20 11:50:49;;;;;;;;;;;15.10;75.10;;;;;;5292817;28;19927;-29
2022/03/20 11:53:27;;;;;;;;;;;15.10;74.80;;;;;;5293566;28;19930;-29
2022/03/20 11:55:58;;;;;;;;;;;15.10;73.50;;;;;;5289503;28;19923;-29
2022/03/20 11:58:40;;;;;;;;;;;15.10;71.70;;;;;;5293223;28;19968;-29
2022/03/20 12:01:15;;;;;;;;;;;15.10;81.60;;;;;;5264669;28;19976;-29
2022/03/20 12:03:53;;;;;;;;;;;15.10;68.20;;;;;;5285575;28;19934;-29
2022/03/20 12:06:36;;;;;;;;;;;15.10;65.30;;;;;;5293194;28;19928;-32
2022/03/20 12:09:27;;;;;;;;;;;15.10;74.30;;;;;;5292657;28;19966;-29
2022/03/20 12:12:18;;;;;;;;;;;15.10;56.80;;;;;;5291135;28;19924;-29
2022/03/20 12:14:51;;;;;;;;;;;15.00;55.10;;;;;;5293800;28;19931;-28
2022/03/20 12:17:22;;;;;;;;;;;15.00;54.50;;;;;;5292222;28;19966;-29
2022/03/20 12:19:53;;;;;;;;;;;15.10;54.60;;;;;;5274609;28;20392;-29
2022/03/20 12:22:24;;;;;;;;;;;15.10;54.50;;;;;;5292167;28;19924;-32
2022/03/20 12:24:55;;;;;;;;;;;15.10;54.90;;;;;;5292703;28;19946;-30
2022/03/20 12:27:26;;;;;;;;;;;15.20;54.70;;;;;;5292728;28;19931;-29
2022/03/20 12:29:58;;;;;;;;;;;15.20;54.50;;;;;;5292601;28;20315;-32
2022/03/20 12:32:48;;;;;;;;;;;15.20;54.40;;;;;;5282444;28;19930;-30
2022/03/20 12:35:19;;;;;;;;;;;15.20;54.10;;;;;;5282599;28;19970;-29
2022/03/20 12:37:50;;;;;;;;;;;15.50;54.30;;;;;;5269096;28;20266;-29
2022/03/20 12:40:22;;;;;;;;;;;15.50;53.30;;;;;;5270831;28;19924;-30
2022/03/20 12:43:05;;;;;;;;;;;15.60;53.20;;;;;;5269578;28;19939;-28
2022/03/20 12:45:37;;;;;;;;;;;15.60;53.50;;;;;;5274063;28;19971;-30
2022/03/20 12:48:08;;;;;;;;;;;15.60;53.30;;;;;;5280863;28;19997;-32
2022/03/20 12:50:39;;;;;;;;;;;15.60;52.90;;;;;;5283369;28;20441;-30
2022/03/20 12:53:12;;;;;;;;;;;15.70;52.60;;;;;;5279857;28;19928;-29
2022/03/20 12:55:44;;;;;;;;;;;15.70;52.50;;;;;;5283674;28;20373;-29
2022/03/20 12:58:19;;;;;;;;;;;15.70;52.70;;;;;;5281771;28;19924;-31
2022/03/20 13:00:50;;;;;;;;;;;15.70;52.90;;;;;;5284869;28;19932;-29
2022/03/20 13:03:21;;;;;;;;;;;15.80;53.00;;;;;;5276772;28;19929;-29
2022/03/20 13:05:53;;;;;;;;;;;15.80;52.60;;;;;;5283061;28;20002;-29
2022/03/20 13:08:29;;;;;;;;;;;15.80;52.20;;;;;;5281205;28;19932;-29
2022/03/20 13:11:03;;;;;;;;;;;15.80;52.30;;;;;;5283359;28;19927;-29
2022/03/20 13:13:35;;;;;;;;;;;15.80;52.50;;;;;;5279779;28;19928;-29
2022/03/20 13:16:14;;;;;;;;;;;15.70;52.50;;;;;;5282978;28;19934;-29
2022/03/20 13:18:44;;;;;;;;;;;15.70;52.30;;;;;;5280455;28;19931;-29
2022/03/20 13:21:15;;;;;;;;;;;15.70;52.30;;;;;;5265224;28;19932;-30
2022/03/20 13:23:47;;;;;;;;;;;15.70;52.30;;;;;;5266303;28;19924;-32
2022/03/20 13:26:18;;;;;;;;;;;15.70;52.10;;;;;;5265612;28;19924;-31
2022/03/20 13:28:49;;;;;;;;;;;15.70;52.00;;;;;;5249374;28;19924;-29
2022/03/20 13:31:21;;;;;;;;;;;15.70;52.20;;;;;;5265393;28;20332;-30
2022/03/20 13:33:59;;;;;;;;;;;15.70;52.50;;;;;;5247887;28;19924;-30
2022/03/20 13:36:34;;;;;;;;;;;15.70;53.10;;;;;;5266105;28;19924;-29
2022/03/20 13:39:11;;;;;;;;;;;15.60;53.50;;;;;;5249149;28;20036;-33
2022/03/20 13:41:42;;;;;;;;;;;15.60;53.40;;;;;;5265955;28;20412;-29
2022/03/20 13:44:15;;;;;;;;;;;15.60;53.90;;;;;;5265930;28;20017;-29
2022/03/20 13:46:46;;;;;;;;;;;15.60;53.70;;;;;;5265914;28;19935;-30
2022/03/20 13:49:17;;;;;;;;;;;15.50;55.30;;;;;;5265866;28;19924;-29
2022/03/20 13:51:49;;;;;;;;;;;15.50;55.30;;;;;;5253534;28;19924;-31
2022/03/20 13:54:23;;;;;;;;;;;15.50;55.70;;;;;;5278244;28;19924;-31
2022/03/20 13:57:11;;;;;;;;;;;15.50;54.90;;;;;;5275378;28;20022;-30
2022/03/20 13:59:52;;;;;;;;;;;15.50;56.30;;;;;;5276331;28;20293;-30
2022/03/20 14:02:24;;;;;;;;;;;15.50;55.20;;;;;;5277918;28;19967;-29
2022/03/20 14:04:57;;;;;;;;;;;15.50;55.30;;;;;;5274967;28;19935;-29
2022/03/20 14:07:28;;;;;;;;;;;15.50;55.40;;;;;;5277798;28;20261;-30
2022/03/20 14:09:59;;;;;;;;;;;15.50;54.80;;;;;;5274002;28;19931;-30
2022/03/20 14:12:31;;;;;;;;;;;15.40;54.80;;;;;;5277108;28;19928;-32
2022/03/20 14:15:11;;;;;;;;;;;15.40;54.90;;;;;;5274318;28;19969;-30
2022/03/20 14:17:50;;;;;;;;;;;15.40;55.20;;;;;;5273140;28;19977;-29
2022/03/20 14:20:21;;;;;;;;;;;15.30;55.30;;;;;;5282037;28;19923;-34
2022/03/20 14:22:57;;;;;;;;;;;15.30;55.90;;;;;;5284731;28;19935;-30
2022/03/20 14:25:29;;;;;;;;;;;15.30;55.80;;;;;;5267597;28;19928;-31
2022/03/20 14:28:03;;;;;;;;;;;15.30;56.10;;;;;;5266429;28;20349;-30
2022/03/20 14:39:29;;;;;;;;;;;14.90;56.90;;;;;;5267765;28;19924;-30
2022/03/20 14:42:00;;;;;;;;;;;14.30;57.40;;;;;;5267406;28;20015;-29
2022/03/20 14:44:31;;;;;;;;;;;14.00;57.20;;;;;;5267796;28;19931;-29
2022/03/20 14:47:04;;;;;;;;;;;13.80;57.50;;;;;;5267691;28;20365;-30
2022/03/20 14:49:35;;;;;;;;;;;13.70;57.00;;;;;;5269707;28;20029;-30
2022/03/20 14:52:09;;;;;;;;;;;13.70;56.50;;;;;;5283273;28;19967;-30
2022/03/20 14:54:41;;;;;;;;;;;13.60;57.30;;;;;;5281257;28;20370;-31
2022/03/20 14:57:12;;;;;;;;;;;13.50;57.10;;;;;;5278856;28;19924;-29
2022/03/20 14:59:44;;;;;;;;;;;13.50;57.40;;;;;;5281791;28;19969;-29
2022/03/20 15:02:15;;;;;;;;;;;13.50;58.90;;;;;;5279633;28;19928;-29
2022/03/20 15:04:49;;;;;;;;;;;13.40;57.80;;;;;;5281912;28;19923;-29
2022/03/20 15:07:20;;;;;;;;;;;13.40;60.00;;;;;;5279149;28;20023;-29
2022/03/20 15:12:40;;;;;;;;;;;13.40;59.90;;;;;;5281962;28;19930;-29
2022/03/20 15:15:12;;;;;;;;;;;13.30;58.10;;;;;;5284641;28;20396;-29
2022/03/20 15:17:43;;;;;;;;;;;13.30;60.60;;;;;;5288162;28;20368;-29
2022/03/20 15:20:14;;;;;;;;;;;13.30;58.40;;;;;;5289712;28;20010;-32
2022/03/20 15:22:45;;;;;;;;;;;13.40;59.00;;;;;;5286527;28;20444;-28
2022/03/20 15:25:16;;;;;;;;;;;13.40;59.00;;;;;;5271157;28;20023;-29
2022/03/20 15:27:47;;;;;;;;;;;13.30;57.70;;;;;;5271151;28;20522;-29
2022/03/20 15:30:18;;;;;;;;;;;13.30;60.20;;;;;;5286517;28;19924;-31
2022/03/20 15:32:50;;;;;;;;;;;13.30;58.20;;;;;;5270934;28;20444;-30
2022/03/20 15:35:21;;;;;;;;;;;13.20;59.70;;;;;;5257567;28;19928;-32
2022/03/20 15:37:57;;;;;;;;;;;13.20;58.40;;;;;;5278169;28;19932;-29
2022/03/20 15:40:28;;;;;;;;;;;13.10;57.90;;;;;;5270667;28;19924;-29
2022/03/20 15:42:59;;;;;;;;;;;13.00;58.80;;;;;;5270891;28;20438;-29
2022/03/20 15:45:30;;;;;;;;;;;13.00;60.80;;;;;;5270732;28;19924;-29
2022/03/20 15:48:01;;;;;;;;;;;12.90;60.00;;;;;;5270892;28;20438;-29
2022/03/20 15:50:32;;;;;;;;;;;12.90;61.30;;;;;;5270625;28;19924;-29
2022/03/20 15:53:04;;;;;;;;;;;12.90;67.50;;;;;;5270252;28;19997;-29
2022/03/20 15:55:36;;;;;;;;;;;12.80;69.00;;;;;;5270693;28;20389;-29
2022/03/20 15:58:06;;;;;;;;;;;12.80;66.70;;;;;;5269258;28;19931;-29